Thamesteel1 — V7OI7 — position and weather

sailwx.info

Track history (hours):
 
Tides and Currents Weather Stations Pressure Air Temp Water Temp Dewpoint Dewpoint Depression Visibility Wind Speed Wind Dir Waves Ship Positions

Thamesteel1

Last reported at 2017-Dec-12 18:46 UTC. Time now 2017-Dec-17 21:46 UTC.
Position N 09°11' W 079°52'.

Length 89 m; draft 4.8 m.

Type: Cargo ship. MMSI: 538003096.

Date/timePositionNaut miles runAvg speedWind from/ knotsBaromVisibWave heightAir tempDewpointWater temp
2017-Dec-12 18:46N 09°11' W 079°52'3 8.2
2017-Dec-12 18:23N 09°12' W 079°55'3 6.8
2017-Dec-12 18:00N 09°15' W 079°55'0 0.8
2017-Dec-12 17:30N 09°15' W 079°55'0 0.1
2017-Dec-12 17:00N 09°15' W 079°55'0 0.0
2017-Dec-12 16:30N 09°15' W 079°55'0 0.0
2017-Dec-12 15:57N 09°15' W 079°55'0 0.1
2017-Dec-12 15:30N 09°15' W 079°55'0 0.0
2017-Dec-12 15:00N 09°15' W 079°55'0 0.0
2017-Dec-12 14:30N 09°15' W 079°55'0 0.1
2017-Dec-12 14:00N 09°15' W 079°55'0 0.1
2017-Dec-12 13:30N 09°15' W 079°55'0 0.0
2017-Dec-12 13:00N 09°15' W 079°55'0 0.2
2017-Dec-12 12:30N 09°15' W 079°55'0 0.0
2017-Dec-12 12:00N 09°15' W 079°55'0 0.1
2017-Dec-12 11:30N 09°15' W 079°55'0 0.1
2017-Dec-12 11:00N 09°15' W 079°55'0 0.1
2017-Dec-12 10:30N 09°15' W 079°55'0 0.0
2017-Dec-12 08:54N 09°15' W 079°55'0 0.1
2017-Dec-12 08:30N 09°15' W 079°55'0 0.1
2017-Dec-12 08:00N 09°15' W 079°55'0 0.0
2017-Dec-12 07:27N 09°15' W 079°55'1 2.0
2017-Dec-12 07:00N 09°16' W 079°55'0 0.4
2017-Dec-12 06:30N 09°16' W 079°55'0 0.4
2017-Dec-12 06:00N 09°17' W 079°55'0 0.3
2017-Dec-12 05:30N 09°17' W 079°55'0 0.6
2017-Dec-12 05:00N 09°17' W 079°55'2 4.1
2017-Dec-12 04:30N 09°19' W 079°55'4 7.6
2017-Dec-12 04:00N 09°23' W 079°55'4 8.7
2017-Dec-12 03:30N 09°27' W 079°55'2 3.9
2017-Dec-12 02:59N 09°29' W 079°54'3 6.7
2017-Dec-12 02:30N 09°29' W 079°57'2 4.1
2017-Dec-12 02:00N 09°28' W 079°58'0 0.2
2017-Dec-12 00:07N 09°28' W 079°58'0 0.0
2017-Dec-11 23:37N 09°28' W 079°58'0 0.1
2017-Dec-11 23:28N 09°28' W 079°58'0 0.0
2017-Dec-11 22:58N 09°28' W 079°58'0 0.0
2017-Dec-11 21:40N 09°28' W 079°58'0 0.0
2017-Dec-11 21:22N 09°28' W 079°58'0 0.1
2017-Dec-11 20:58N 09°27' W 079°58'0 0.0
2017-Dec-11 19:16N 09°27' W 079°58'0 0.1
2017-Dec-11 18:58N 09°28' W 079°58'0 0.3
2017-Dec-11 18:29N 09°27' W 079°58'0 0.7
2017-Dec-11 17:57N 09°27' W 079°58'0 0.5
2017-Dec-11 17:30N 09°27' W 079°58'1 2.5
2017-Dec-11 16:55N 09°27' W 079°57'0 0.3
2017-Dec-11 15:43N 09°26' W 079°57'0 0.1
2017-Dec-11 15:10N 09°26' W 079°57'0 0.0
2017-Dec-11 14:55N 09°26' W 079°57'0 0.1
2017-Dec-11 14:22N 09°26' W 079°57'0 0.0
2017-Dec-11 13:55N 09°26' W 079°57'0 0.0
2017-Dec-11 13:25N 09°26' W 079°57'0 0.0
2017-Dec-11 12:58N 09°26' W 079°57'0 0.1
2017-Dec-11 12:28N 09°26' W 079°57'0 0.0
2017-Dec-11 11:52N 09°26' W 079°57'0 0.0
2017-Dec-11 11:28N 09°26' W 079°57'0 0.1
2017-Dec-11 10:58N 09°26' W 079°57'0 0.0
2017-Dec-11 10:28N 09°26' W 079°57'0 0.0
2017-Dec-11 10:00N 09°26' W 079°57'0 0.0
2017-Dec-11 09:28N 09°26' W 079°57'0 0.0
2017-Dec-11 08:58N 09°26' W 079°57'0 0.0
2017-Dec-11 08:28N 09°26' W 079°57'0 0.0
2017-Dec-11 07:58N 09°26' W 079°57'0 0.0
2017-Dec-11 07:25N 09°26' W 079°57'0 0.0
2017-Dec-11 06:58N 09°26' W 079°57'0 0.0
2017-Dec-11 06:25N 09°26' W 079°57'0 0.0
2017-Dec-11 05:58N 09°26' W 079°57'0 0.0
2017-Dec-11 05:28N 09°26' W 079°57'0 0.0
2017-Dec-11 04:58N 09°26' W 079°57'0 0.0
2017-Dec-11 04:25N 09°26' W 079°57'0 0.1
2017-Dec-11 03:55N 09°26' W 079°57'0 0.0
2017-Dec-11 03:22N 09°26' W 079°57'0 0.1
2017-Dec-11 02:55N 09°26' W 079°57'0 0.1
2017-Dec-11 02:25N 09°26' W 079°57'0 0.1
2017-Dec-11 01:58N 09°26' W 079°57'0 0.0
2017-Dec-11 01:28N 09°26' W 079°57'0 0.0
2017-Dec-11 00:55N 09°26' W 079°57'0 0.0
2017-Dec-11 00:28N 09°26' W 079°57'0 0.1
2017-Dec-10 23:52N 09°26' W 079°57'0 0.0
2017-Dec-10 23:25N 09°26' W 079°57'0 0.0
2017-Dec-10 22:55N 09°26' W 079°57'0 0.0
2017-Dec-10 22:25N 09°26' W 079°57'0 0.0
2017-Dec-10 21:58N 09°26' W 079°57'0 0.1
2017-Dec-10 21:25N 09°26' W 079°57'0 0.0
2017-Dec-10 20:58N 09°26' W 079°57'0 0.1
2017-Dec-10 20:28N 09°26' W 079°57'0 0.1
2017-Dec-10 19:58N 09°26' W 079°57'0 0.1
2017-Dec-10 19:28N 09°26' W 079°57'0 0.1
2017-Dec-10 18:58N 09°26' W 079°57'0 0.2
2017-Dec-10 18:25N 09°26' W 079°57'0 0.1
2017-Dec-10 17:19N 09°26' W 079°57'0 0.0
2017-Dec-10 16:34N 09°26' W 079°57'0 0.0
2017-Dec-10 14:55N 09°26' W 079°57'0 0.0
2017-Dec-10 14:25N 09°26' W 079°57'0 0.0
2017-Dec-10 13:49N 09°26' W 079°57'0 0.0
2017-Dec-10 13:25N 09°26' W 079°57'0 0.0
2017-Dec-10 12:55N 09°26' W 079°57'0 0.0
2017-Dec-10 12:22N 09°26' W 079°57'0 0.0
2017-Dec-10 11:52N 09°26' W 079°57'0 0.0
2017-Dec-10 11:28N 09°26' W 079°57'0 0.0
2017-Dec-10 10:58N 09°26' W 079°57'0 0.0
2017-Dec-10 10:28N 09°26' W 079°57'0 0.0
2017-Dec-10 09:55N 09°26' W 079°57'0 0.0
2017-Dec-10 09:19N 09°26' W 079°57'0 0.0
2017-Dec-10 08:55N 09°26' W 079°57'0 0.0
2017-Dec-10 08:28N 09°26' W 079°57'0 0.0
2017-Dec-10 07:55N 09°26' W 079°57'0 0.0
2017-Dec-10 07:28N 09°26' W 079°57'0 0.0
2017-Dec-10 06:46N 09°26' W 079°57'0 0.0
2017-Dec-10 06:25N 09°26' W 079°57'0 0.0
2017-Dec-10 05:55N 09°26' W 079°57'0 0.0
2017-Dec-10 05:25N 09°26' W 079°57'0 0.0
2017-Dec-10 04:52N 09°26' W 079°57'0 0.0
2017-Dec-10 04:28N 09°26' W 079°57'0 0.0
2017-Dec-10 03:58N 09°26' W 079°57'0 0.0
2017-Dec-10 03:28N 09°26' W 079°57'0 0.0
2017-Dec-10 02:52N 09°26' W 079°57'0 0.0
2017-Dec-10 02:28N 09°26' W 079°57'0 0.0
2017-Dec-10 01:58N 09°26' W 079°57'0 0.0
2017-Dec-10 01:28N 09°26' W 079°57'0 0.0
2017-Dec-10 00:55N 09°26' W 079°57'0 0.0
2017-Dec-10 00:16N 09°26' W 079°57'0 0.0
2017-Dec-09 23:58N 09°26' W 079°57'0 0.0
2017-Dec-09 23:28N 09°26' W 079°57'0 0.0
2017-Dec-09 22:58N 09°26' W 079°57'0 0.0
2017-Dec-09 22:13N 09°26' W 079°57'0 0.0
2017-Dec-09 21:55N 09°26' W 079°57'0 0.0
2017-Dec-09 21:25N 09°26' W 079°57'0 0.0
2017-Dec-09 20:58N 09°26' W 079°57'0 0.0
2017-Dec-09 20:28N 09°26' W 079°57'0 0.0
2017-Dec-09 19:01N 09°26' W 079°57'0 0.0
2017-Dec-09 18:52N 09°26' W 079°57'0 0.0
2017-Dec-09 18:28N 09°26' W 079°57'0 0.0
2017-Dec-09 17:52N 09°26' W 079°57'0 0.0
2017-Dec-09 17:30N 09°26' W 079°57'0 0.1
2017-Dec-09 17:00N 09°26' W 079°57'0 0.9
2017-Dec-09 16:30N 09°27' W 079°57'2 3.5
2017-Dec-09 16:00N 09°28' W 079°56'1 2.5
2017-Dec-09 15:30N 09°28' W 079°55'4 8.8
2017-Dec-09 15:00N 09°32' W 079°53'5 9.8
2017-Dec-09 14:30N 09°36' W 079°52'1210.0
2017-Dec-09 13:20N 09°48' W 079°51'  
2017-Dec-03 16:35N 29°39' W 089°57'  
Track history (hours):
 
Tides and Currents Weather Stations Pressure Air Temp Water Temp Dewpoint Dewpoint Depression Visibility Wind Speed Wind Dir Waves Ship Positions

Thamesteel1

Last reported at 2017-Dec-12 18:46 UTC. Time now 2017-Dec-17 21:46 UTC.
Position N 09°11' W 079°52'.

Length 89 m; draft 4.8 m.

Type: Cargo ship. MMSI: 538003096.

Date/timePositionNaut miles runAvg speedWind from/ knotsBaromVisibWave heightAir tempDewpointWater temp
2017-Dec-12 18:46N 09°11' W 079°52'3 8.2
2017-Dec-12 18:23N 09°12' W 079°55'3 6.8
2017-Dec-12 18:00N 09°15' W 079°55'0 0.8
2017-Dec-12 17:30N 09°15' W 079°55'0 0.1
2017-Dec-12 17:00N 09°15' W 079°55'0 0.0
2017-Dec-12 16:30N 09°15' W 079°55'0 0.0
2017-Dec-12 15:57N 09°15' W 079°55'0 0.1
2017-Dec-12 15:30N 09°15' W 079°55'0 0.0
2017-Dec-12 15:00N 09°15' W 079°55'0 0.0
2017-Dec-12 14:30N 09°15' W 079°55'0 0.1
2017-Dec-12 14:00N 09°15' W 079°55'0 0.1
2017-Dec-12 13:30N 09°15' W 079°55'0 0.0
2017-Dec-12 13:00N 09°15' W 079°55'0 0.2
2017-Dec-12 12:30N 09°15' W 079°55'0 0.0
2017-Dec-12 12:00N 09°15' W 079°55'0 0.1
2017-Dec-12 11:30N 09°15' W 079°55'0 0.1
2017-Dec-12 11:00N 09°15' W 079°55'0 0.1
2017-Dec-12 10:30N 09°15' W 079°55'0 0.0
2017-Dec-12 08:54N 09°15' W 079°55'0 0.1
2017-Dec-12 08:30N 09°15' W 079°55'0 0.1
2017-Dec-12 08:00N 09°15' W 079°55'0 0.0
2017-Dec-12 07:27N 09°15' W 079°55'1 2.0
2017-Dec-12 07:00N 09°16' W 079°55'0 0.4
2017-Dec-12 06:30N 09°16' W 079°55'0 0.4
2017-Dec-12 06:00N 09°17' W 079°55'0 0.3
2017-Dec-12 05:30N 09°17' W 079°55'0 0.6
2017-Dec-12 05:00N 09°17' W 079°55'2 4.1
2017-Dec-12 04:30N 09°19' W 079°55'4 7.6
2017-Dec-12 04:00N 09°23' W 079°55'4 8.7
2017-Dec-12 03:30N 09°27' W 079°55'2 3.9
2017-Dec-12 02:59N 09°29' W 079°54'3 6.7
2017-Dec-12 02:30N 09°29' W 079°57'2 4.1
2017-Dec-12 02:00N 09°28' W 079°58'0 0.2
2017-Dec-12 00:07N 09°28' W 079°58'0 0.0
2017-Dec-11 23:37N 09°28' W 079°58'0 0.1
2017-Dec-11 23:28N 09°28' W 079°58'0 0.0
2017-Dec-11 22:58N 09°28' W 079°58'0 0.0
2017-Dec-11 21:40N 09°28' W 079°58'0 0.0
2017-Dec-11 21:22N 09°28' W 079°58'0 0.1
2017-Dec-11 20:58N 09°27' W 079°58'0 0.0
2017-Dec-11 19:16N 09°27' W 079°58'0 0.1
2017-Dec-11 18:58N 09°28' W 079°58'0 0.3
2017-Dec-11 18:29N 09°27' W 079°58'0 0.7
2017-Dec-11 17:57N 09°27' W 079°58'0 0.5
2017-Dec-11 17:30N 09°27' W 079°58'1 2.5
2017-Dec-11 16:55N 09°27' W 079°57'0 0.3
2017-Dec-11 15:43N 09°26' W 079°57'0 0.1
2017-Dec-11 15:10N 09°26' W 079°57'0 0.0
2017-Dec-11 14:55N 09°26' W 079°57'0 0.1
2017-Dec-11 14:22N 09°26' W 079°57'0 0.0
2017-Dec-11 13:55N 09°26' W 079°57'0 0.0
2017-Dec-11 13:25N 09°26' W 079°57'0 0.0
2017-Dec-11 12:58N 09°26' W 079°57'0 0.1
2017-Dec-11 12:28N 09°26' W 079°57'0 0.0
2017-Dec-11 11:52N 09°26' W 079°57'0 0.0
2017-Dec-11 11:28N 09°26' W 079°57'0 0.1
2017-Dec-11 10:58N 09°26' W 079°57'0 0.0
2017-Dec-11 10:28N 09°26' W 079°57'0 0.0
2017-Dec-11 10:00N 09°26' W 079°57'0 0.0
2017-Dec-11 09:28N 09°26' W 079°57'0 0.0
2017-Dec-11 08:58N 09°26' W 079°57'0 0.0
2017-Dec-11 08:28N 09°26' W 079°57'0 0.0
2017-Dec-11 07:58N 09°26' W 079°57'0 0.0
2017-Dec-11 07:25N 09°26' W 079°57'0 0.0
2017-Dec-11 06:58N 09°26' W 079°57'0 0.0
2017-Dec-11 06:25N 09°26' W 079°57'0 0.0
2017-Dec-11 05:58N 09°26' W 079°57'0 0.0
2017-Dec-11 05:28N 09°26' W 079°57'0 0.0
2017-Dec-11 04:58N 09°26' W 079°57'0 0.0
2017-Dec-11 04:25N 09°26' W 079°57'0 0.1
2017-Dec-11 03:55N 09°26' W 079°57'0 0.0
2017-Dec-11 03:22N 09°26' W 079°57'0 0.1
2017-Dec-11 02:55N 09°26' W 079°57'0 0.1
2017-Dec-11 02:25N 09°26' W 079°57'0 0.1
2017-Dec-11 01:58N 09°26' W 079°57'0 0.0
2017-Dec-11 01:28N 09°26' W 079°57'0 0.0
2017-Dec-11 00:55N 09°26' W 079°57'0 0.0
2017-Dec-11 00:28N 09°26' W 079°57'0 0.1
2017-Dec-10 23:52N 09°26' W 079°57'0 0.0
2017-Dec-10 23:25N 09°26' W 079°57'0 0.0
2017-Dec-10 22:55N 09°26' W 079°57'0 0.0
2017-Dec-10 22:25N 09°26' W 079°57'0 0.0
2017-Dec-10 21:58N 09°26' W 079°57'0 0.1
2017-Dec-10 21:25N 09°26' W 079°57'0 0.0
2017-Dec-10 20:58N 09°26' W 079°57'0 0.1
2017-Dec-10 20:28N 09°26' W 079°57'0 0.1
2017-Dec-10 19:58N 09°26' W 079°57'0 0.1
2017-Dec-10 19:28N 09°26' W 079°57'0 0.1
2017-Dec-10 18:58N 09°26' W 079°57'0 0.2
2017-Dec-10 18:25N 09°26' W 079°57'0 0.1
2017-Dec-10 17:19N 09°26' W 079°57'0 0.0
2017-Dec-10 16:34N 09°26' W 079°57'0 0.0
2017-Dec-10 14:55N 09°26' W 079°57'0 0.0
2017-Dec-10 14:25N 09°26' W 079°57'0 0.0
2017-Dec-10 13:49N 09°26' W 079°57'0 0.0
2017-Dec-10 13:25N 09°26' W 079°57'0 0.0
2017-Dec-10 12:55N 09°26' W 079°57'0 0.0
2017-Dec-10 12:22N 09°26' W 079°57'0 0.0
2017-Dec-10 11:52N 09°26' W 079°57'0 0.0
2017-Dec-10 11:28N 09°26' W 079°57'0 0.0
2017-Dec-10 10:58N 09°26' W 079°57'0 0.0
2017-Dec-10 10:28N 09°26' W 079°57'0 0.0
2017-Dec-10 09:55N 09°26' W 079°57'0 0.0
2017-Dec-10 09:19N 09°26' W 079°57'0 0.0
2017-Dec-10 08:55N 09°26' W 079°57'0 0.0
2017-Dec-10 08:28N 09°26' W 079°57'0 0.0
2017-Dec-10 07:55N 09°26' W 079°57'0 0.0
2017-Dec-10 07:28N 09°26' W 079°57'0 0.0
2017-Dec-10 06:46N 09°26' W 079°57'0 0.0
2017-Dec-10 06:25N 09°26' W 079°57'0 0.0
2017-Dec-10 05:55N 09°26' W 079°57'0 0.0
2017-Dec-10 05:25N 09°26' W 079°57'0 0.0
2017-Dec-10 04:52N 09°26' W 079°57'0 0.0
2017-Dec-10 04:28N 09°26' W 079°57'0 0.0
2017-Dec-10 03:58N 09°26' W 079°57'0 0.0
2017-Dec-10 03:28N 09°26' W 079°57'0 0.0
2017-Dec-10 02:52N 09°26' W 079°57'0 0.0
2017-Dec-10 02:28N 09°26' W 079°57'0 0.0
2017-Dec-10 01:58N 09°26' W 079°57'0 0.0
2017-Dec-10 01:28N 09°26' W 079°57'0 0.0
2017-Dec-10 00:55N 09°26' W 079°57'0 0.0
2017-Dec-10 00:16N 09°26' W 079°57'0 0.0
2017-Dec-09 23:58N 09°26' W 079°57'0 0.0
2017-Dec-09 23:28N 09°26' W 079°57'0 0.0
2017-Dec-09 22:58N 09°26' W 079°57'0 0.0
2017-Dec-09 22:13N 09°26' W 079°57'0 0.0
2017-Dec-09 21:55N 09°26' W 079°57'0 0.0
2017-Dec-09 21:25N 09°26' W 079°57'0 0.0
2017-Dec-09 20:58N 09°26' W 079°57'0 0.0
2017-Dec-09 20:28N 09°26' W 079°57'0 0.0
2017-Dec-09 19:01N 09°26' W 079°57'0 0.0
2017-Dec-09 18:52N 09°26' W 079°57'0 0.0
2017-Dec-09 18:28N 09°26' W 079°57'0 0.0
2017-Dec-09 17:52N 09°26' W 079°57'0 0.0
2017-Dec-09 17:30N 09°26' W 079°57'0 0.1
2017-Dec-09 17:00N 09°26' W 079°57'0 0.9
2017-Dec-09 16:30N 09°27' W 079°57'2 3.5
2017-Dec-09 16:00N 09°28' W 079°56'1 2.5
2017-Dec-09 15:30N 09°28' W 079°55'4 8.8
2017-Dec-09 15:00N 09°32' W 079°53'5 9.8
2017-Dec-09 14:30N 09°36' W 079°52'1210.0
2017-Dec-09 13:20N 09°48' W 079°51'  
2017-Dec-03 16:35N 29°39' W 089°57'  

Dump ship's entire track history